Time;durP1;ratioP1;P1;durP2;ratioP2;P2;SDS_P1;SDS_P2;PMS_P1;PMS_P2;Temp;Humidity;BMP_temperature;BMP_pressure;BME280_temperature;BME280_humidity;BME280_pressure;Samples;Min_cycle;Max_cycle;Signal;HPM_P1;HPM_P2
2024/04/07 00:00:19;;;;;;;1.77;0.90;;;;;;;17.42;49.24;93634.94;520310;28;848;-71
2024/04/07 00:00:36;;;;;;;2.90;1.10;;;;;;;17.44;48.94;93632.28;521698;28;1044;-71
2024/04/07 00:00:51;;;;;;;1.30;1.00;;;;;;;17.44;48.46;93640.66;521714;28;1155;-71
2024/04/07 00:01:12;;;;;;;1.90;1.00;;;;;;;17.44;48.10;93635.06;521735;28;876;-71
2024/04/07 00:01:28;;;;;;;1.88;0.95;;;;;;;17.44;48.24;93632.28;521458;28;883;-71
2024/04/07 00:01:46;;;;;;;1.05;0.85;;;;;;;17.44;47.96;93633.03;520814;28;1416;-71
2024/04/07 00:02:03;;;;;;;1.52;1.10;;;;;;;17.45;48.13;93634.47;520419;28;864;-71
2024/04/07 00:02:18;;;;;;;2.03;0.95;;;;;;;17.45;48.35;93628.91;521129;28;1073;-71
2024/04/07 00:02:34;;;;;;;1.65;0.93;;;;;;;17.44;48.14;93638.59;521647;28;804;-72
2024/04/07 00:02:51;;;;;;;1.20;1.07;;;;;;;17.44;48.41;93629.50;521668;28;828;-71
2024/04/07 00:03:06;;;;;;;1.30;1.10;;;;;;;17.42;48.09;93630.09;521698;28;825;-71
2024/04/07 00:03:22;;;;;;;2.07;1.17;;;;;;;17.37;48.02;93630.38;521641;28;836;-70
2024/04/07 00:03:38;;;;;;;2.08;0.98;;;;;;;17.34;47.69;93626.72;521761;28;812;-71
2024/04/07 00:03:53;;;;;;;1.10;0.80;;;;;;;17.33;47.59;93633.63;521419;28;1137;-70
2024/04/07 00:04:09;;;;;;;1.00;0.73;;;;;;;17.31;47.83;93629.94;521708;28;1135;-71
2024/04/07 00:04:24;;;;;;;1.50;0.88;;;;;;;17.32;47.91;93637.00;521250;28;1642;-70
2024/04/07 00:04:40;;;;;;;1.63;0.90;;;;;;;17.31;47.93;93627.16;521068;28;755;-70
2024/04/07 00:04:55;;;;;;;1.60;1.00;;;;;;;17.32;47.74;93631.44;521761;28;859;-71
2024/04/07 00:05:11;;;;;;;1.37;0.90;;;;;;;17.34;47.55;93631.56;519647;28;817;-70
2024/04/07 00:05:26;;;;;;;2.38;0.90;;;;;;;17.35;47.70;93633.03;521627;28;1068;-70
2024/04/07 00:05:41;;;;;;;3.13;1.00;;;;;;;17.34;47.53;93623.94;521597;28;799;-70
2024/04/07 00:05:57;;;;;;;1.87;0.90;;;;;;;17.37;47.88;93633.16;521739;28;849;-70
2024/04/07 00:06:13;;;;;;;1.13;0.80;;;;;;;17.38;47.85;93635.38;521657;28;1140;-70
2024/04/07 00:06:29;;;;;;;1.30;0.85;;;;;;;17.24;48.13;93614.09;521803;28;896;-72
2024/04/07 00:06:45;;;;;;;1.30;0.88;;;;;;;17.41;47.92;93633.47;521688;28;837;-70
2024/04/07 00:07:02;;;;;;;3.40;1.10;;;;;;;17.41;47.76;93631.41;521687;28;1252;-70
2024/04/07 00:07:18;;;;;;;3.33;1.17;;;;;;;17.41;47.91;93633.47;520664;28;1658;-70
2024/04/07 00:07:33;;;;;;;1.20;0.90;;;;;;;17.42;47.84;93634.94;521719;28;840;-70
2024/04/07 00:07:49;;;;;;;1.25;0.82;;;;;;;17.42;47.66;93632.88;520741;28;1041;-70
2024/04/07 00:08:04;;;;;;;2.43;0.80;;;;;;;17.38;47.50;93632.59;521675;28;906;-70
2024/04/07 00:08:20;;;;;;;2.22;0.68;;;;;;;17.34;47.64;93632.31;521605;28;852;-70
2024/04/07 00:08:35;;;;;;;1.17;0.70;;;;;;;17.35;47.74;93633.75;521690;28;837;-71
2024/04/07 00:08:51;;;;;;;1.20;0.88;;;;;;;17.34;48.08;93634.34;521690;28;1026;-70
2024/04/07 00:09:06;;;;;;;0.90;0.73;;;;;;;17.34;47.87;93637.88;521789;28;863;-70
2024/04/07 00:09:22;;;;;;;0.70;0.60;;;;;;;17.36;47.91;93640.81;521450;28;962;-70
2024/04/07 00:09:38;;;;;;;0.80;0.70;;;;;;;17.37;48.11;93636.69;521789;28;860;-70
2024/04/07 00:09:53;;;;;;;1.30;0.70;;;;;;;17.37;48.35;93633.91;520803;28;1710;-70
2024/04/07 00:10:09;;;;;;;1.38;0.73;;;;;;;17.38;48.17;93637.44;520320;28;805;-70
2024/04/07 00:10:25;;;;;;;1.27;0.90;;;;;;;17.38;48.29;93634.66;521640;28;836;-70
2024/04/07 00:10:40;;;;;;;1.20;1.00;;;;;;;17.36;48.36;93638.03;522139;28;872;-70
2024/04/07 00:10:56;;;;;;;1.50;1.00;;;;;;;17.35;48.32;93636.56;520950;28;1034;-70
2024/04/07 00:11:12;;;;;;;1.23;0.70;;;;;;;17.35;48.42;93635.81;522038;28;1099;-70
2024/04/07 00:11:28;;;;;;;1.52;0.75;;;;;;;17.35;48.41;93633.03;522158;28;813;-70
2024/04/07 00:11:44;;;;;;;1.08;0.70;;;;;;;17.35;48.37;93630.22;522112;28;880;-70
2024/04/07 00:12:01;;;;;;;0.80;0.68;;;;;;;17.36;48.19;93628.91;522159;28;820;-70
2024/04/07 00:12:17;;;;;;;1.48;0.80;;;;;;;17.36;48.08;93632.44;522157;28;832;-71
2024/04/07 00:12:32;;;;;;;1.50;0.90;;;;;;;17.35;48.22;93630.97;521972;28;1641;-70
2024/04/07 00:12:48;;;;;;;0.80;0.80;;;;;;;17.35;48.55;93638.59;520025;28;765;-70
2024/04/07 00:13:04;;;;;;;0.70;0.70;;;;;;;17.34;48.61;93640.69;520034;28;864;-70
2024/04/07 00:13:19;;;;;;;1.70;0.70;;;;;;;17.35;48.41;93644.19;521154;28;1093;-70
2024/04/07 00:13:35;;;;;;;1.73;0.60;;;;;;;17.35;48.23;93638.59;522202;28;785;-70
2024/04/07 00:13:53;;;;;;;1.20;0.73;;;;;;;17.35;48.07;93639.34;522223;28;788;-70
2024/04/07 00:14:09;;;;;;;1.60;0.80;;;;;;;17.32;48.14;93634.97;521485;28;887;-70
2024/04/07 00:14:24;;;;;;;1.23;0.80;;;;;;;17.36;48.08;93645.66;520909;28;1393;-72
2024/04/07 00:14:40;;;;;;;1.70;0.90;;;;;;;17.33;48.73;93644.03;519997;28;824;-70
2024/04/07 00:14:55;;;;;;;2.03;0.80;;;;;;;17.30;48.84;93648.75;520040;28;821;-70
2024/04/07 00:15:11;;;;;;;1.03;0.63;;;;;;;17.31;48.95;93649.47;521914;28;809;-70
2024/04/07 00:15:26;;;;;;;1.20;0.70;;;;;;;17.30;48.82;93640.38;521905;28;870;-70
2024/04/07 00:15:42;;;;;;;1.40;0.90;;;;;;;17.27;49.25;93647.16;521933;28;801;-70
2024/04/07 00:15:57;;;;;;;2.60;0.90;;;;;;;17.26;48.88;93647.75;521922;28;1077;-70
2024/04/07 00:16:13;;;;;;;2.92;0.82;;;;;;;17.18;48.92;93633.94;521857;28;840;-70
2024/04/07 00:16:28;;;;;;;1.60;0.80;;;;;;;17.24;49.01;93644.78;520120;28;2270;-70
2024/04/07 00:16:44;;;;;;;0.95;0.75;;;;;;;17.24;49.28;93644.78;520777;28;1678;-70
2024/04/07 00:16:59;;;;;;;0.90;0.70;;;;;;;17.23;49.27;93651.69;520386;28;824;-70
2024/04/07 00:17:15;;;;;;;0.98;0.77;;;;;;;17.23;49.19;93643.31;521572;28;826;-71
2024/04/07 00:17:31;;;;;;;1.30;0.77;;;;;;;17.21;49.39;93638.34;522033;28;1049;-70
2024/04/07 00:17:47;;;;;;;1.13;0.80;;;;;;;17.22;49.43;93642.59;522054;28;841;-70
2024/04/07 00:18:03;;;;;;;1.00;0.90;;;;;;;17.23;49.30;93644.06;522090;28;1144;-70
2024/04/07 00:18:18;;;;;;;2.63;0.95;;;;;;;17.17;49.07;93637.31;522106;28;800;-70
2024/04/07 00:18:34;;;;;;;2.50;1.00;;;;;;;17.20;48.77;93645.22;522158;28;834;-70
2024/04/07 00:18:49;;;;;;;1.20;0.93;;;;;;;17.20;48.69;93641.69;522090;28;811;-70
2024/04/07 00:19:05;;;;;;;1.10;0.90;;;;;;;17.17;48.58;93643.59;521875;28;1103;-70
2024/04/07 00:19:21;;;;;;;1.10;0.80;;;;;;;17.17;48.82;93646.38;521950;28;831;-70
2024/04/07 00:19:37;;;;;;;1.45;0.82;;;;;;;17.15;49.12;93643.47;522133;28;741;-71
2024/04/07 00:19:53;;;;;;;1.77;0.80;;;;;;;17.16;48.75;93647.00;522059;28;890;-70
2024/04/07 00:20:09;;;;;;;1.77;0.80;;;;;;;17.16;48.67;93644.19;522092;28;762;-70
2024/04/07 00:20:24;;;;;;;2.40;0.90;;;;;;;17.17;48.67;93646.38;522073;28;876;-70
2024/04/07 00:20:40;;;;;;;1.80;0.80;;;;;;;17.15;48.63;93642.75;521929;28;978;-70
2024/04/07 00:21:02;;;;;;;0.77;0.75;;;;;;;17.13;48.41;93640.53;521192;28;1729;-70
2024/04/07 00:21:18;;;;;;;0.95;0.80;;;;;;;17.12;48.57;93641.13;520903;28;852;-70
2024/04/07 00:21:33;;;;;;;1.13;0.90;;;;;;;17.10;48.71;93632.59;522189;28;812;-72
2024/04/07 00:21:49;;;;;;;1.20;0.80;;;;;;;17.11;48.59;93642.44;522201;28;773;-70
2024/04/07 00:22:04;;;;;;;1.00;0.70;;;;;;;17.12;48.37;93635.53;522081;28;792;-70
2024/04/07 00:22:20;;;;;;;0.87;0.73;;;;;;;17.13;48.60;93639.81;521776;28;1010;-70
2024/04/07 00:22:35;;;;;;;1.00;0.80;;;;;;;17.14;48.98;93639.22;522114;28;864;-70
2024/04/07 00:22:50;;;;;;;1.10;0.83;;;;;;;17.15;48.53;93639.97;522042;28;761;-70
2024/04/07 00:23:06;;;;;;;1.67;1.10;;;;;;;17.16;48.77;93639.34;522105;28;844;-70
2024/04/07 00:23:22;;;;;;;1.88;1.10;;;;;;;17.16;48.63;93635.81;522056;28;884;-70
2024/04/07 00:23:37;;;;;;;1.20;0.80;;;;;;;17.17;48.45;93638.03;522115;28;843;-70
2024/04/07 00:23:54;;;;;;;1.50;0.90;;;;;;;17.17;48.52;93631.72;522072;28;848;-71
2024/04/07 00:24:09;;;;;;;1.92;0.90;;;;;;;17.17;48.45;93640.09;522081;28;841;-70
2024/04/07 00:24:25;;;;;;;1.55;0.75;;;;;;;17.17;49.07;93640.09;521960;28;745;-70
2024/04/07 00:24:40;;;;;;;2.20;1.03;;;;;;;17.17;49.34;93628.94;521284;28;1768;-70
2024/04/07 00:24:56;;;;;;;2.60;1.02;;;;;;;17.17;49.50;93631.72;521142;28;805;-70
2024/04/07 00:25:12;;;;;;;1.77;0.90;;;;;;;17.17;49.39;93632.44;520750;28;886;-70
2024/04/07 00:25:28;;;;;;;1.38;0.93;;;;;;;17.17;49.08;93634.53;522192;28;1723;-70
2024/04/07 00:25:43;;;;;;;1.57;0.90;;;;;;;17.17;49.04;93624.06;521890;28;1052;-70
2024/04/07 00:25:59;;;;;;;1.70;0.90;;;;;;;17.17;49.63;93637.31;522162;28;786;-71
2024/04/07 00:26:14;;;;;;;1.40;0.90;;;;;;;17.17;49.39;93638.03;521946;28;895;-71
2024/04/07 00:26:30;;;;;;;1.03;0.87;;;;;;;17.16;48.70;93636.56;522049;28;733;-71
2024/04/07 00:26:45;;;;;;;1.10;0.90;;;;;;;17.17;48.60;93638.03;522090;28;753;-72
2024/04/07 00:27:01;;;;;;;1.75;1.05;;;;;;;17.18;48.38;93624.81;522040;28;864;-71
2024/04/07 00:27:16;;;;;;;1.40;0.90;;;;;;;17.18;48.44;93633.94;521934;28;1053;-72
2024/04/07 00:27:32;;;;;;;2.05;0.77;;;;;;;17.19;48.60;93634.66;522168;28;781;-72
2024/04/07 00:27:47;;;;;;;2.90;0.80;;;;;;;17.20;48.47;93636.13;522046;28;761;-72
2024/04/07 00:28:04;;;;;;;1.27;0.73;;;;;;;17.21;48.49;93637.59;521999;28;852;-71
2024/04/07 00:28:20;;;;;;;0.75;0.70;;;;;;;17.21;48.67;93635.53;522016;28;830;-72
2024/04/07 00:28:36;;;;;;;0.70;0.70;;;;;;;17.22;48.82;93639.06;522209;28;843;-71
2024/04/07 00:28:51;;;;;;;0.90;0.67;;;;;;;17.22;49.15;93637.00;521753;28;1008;-72
2024/04/07 00:29:07;;;;;;;0.90;0.73;;;;;;;17.19;48.67;93638.19;521461;28;1730;-72
2024/04/07 00:29:22;;;;;;;1.23;0.93;;;;;;;17.17;49.04;93631.72;521718;28;829;-71
2024/04/07 00:29:37;;;;;;;1.90;1.03;;;;;;;17.15;48.50;93637.88;521436;28;817;-71
2024/04/07 00:29:53;;;;;;;1.65;0.90;;;;;;;17.16;48.38;93642.16;520026;28;911;-71
2024/04/07 00:30:09;;;;;;;1.00;0.73;;;;;;;17.05;48.46;93620.41;520416;28;816;-71
2024/04/07 00:30:24;;;;;;;1.23;0.82;;;;;;;17.18;48.58;93635.97;521970;28;966;-72
2024/04/07 00:30:43;;;;;;;1.57;0.90;;;;;;;17.20;48.84;93633.31;522056;28;1113;-71
2024/04/07 00:31:01;;;;;;;1.40;0.70;;;;;;;17.20;48.83;93641.69;522116;28;937;-71
2024/04/07 00:31:17;;;;;;;1.30;0.90;;;;;;;17.21;49.44;93641.13;521970;28;937;-71
2024/04/07 00:31:32;;;;;;;1.33;1.00;;;;;;;17.19;49.55;93637.44;522104;28;757;-72
2024/04/07 00:31:48;;;;;;;2.37;1.07;;;;;;;17.20;49.58;93636.84;521411;28;1741;-72
2024/04/07 00:32:03;;;;;;;2.33;1.17;;;;;;;17.21;49.73;93635.53;521120;28;978;-71
2024/04/07 00:32:19;;;;;;;1.03;0.90;;;;;;;17.21;49.60;93635.53;522108;28;828;-72
2024/04/07 00:32:34;;;;;;;1.52;0.80;;;;;;;17.23;49.45;93634.94;522121;28;914;-71
2024/04/07 00:32:50;;;;;;;1.43;0.83;;;;;;;17.22;49.24;93639.78;521236;28;1592;-71
2024/04/07 00:33:06;;;;;;;1.05;0.90;;;;;;;17.23;49.11;93641.28;520008;28;951;-71
2024/04/07 00:33:21;;;;;;;1.85;0.80;;;;;;;17.13;49.52;93625.84;521303;28;911;-71
2024/04/07 00:33:38;;;;;;;2.33;0.83;;;;;;;17.26;49.52;93642.16;522101;28;769;-71
2024/04/07 00:33:53;;;;;;;2.15;1.02;;;;;;;17.24;49.74;93631.56;522014;28;1147;-71
2024/04/07 00:34:09;;;;;;;1.67;1.10;;;;;;;17.22;49.61;93641.84;522125;28;858;-71
2024/04/07 00:34:24;;;;;;;2.50;1.03;;;;;;;17.22;49.32;93650.94;521932;28;832;-71
2024/04/07 00:34:40;;;;;;;2.50;0.93;;;;;;;17.19;49.08;93640.25;522141;28;793;-71
2024/04/07 00:34:55;;;;;;;1.80;0.90;;;;;;;17.18;49.15;93635.97;522007;28;852;-71
2024/04/07 00:35:11;;;;;;;1.25;0.75;;;;;;;17.19;49.24;93645.81;522015;28;781;-71
2024/04/07 00:35:26;;;;;;;1.10;0.80;;;;;;;17.20;49.14;93644.50;521879;28;917;-71
2024/04/07 00:35:59;;;;;;;1.40;1.10;;;;;;;17.23;49.55;93655.22;522035;28;795;-71
2024/04/07 00:36:14;;;;;;;2.20;1.00;;;;;;;17.24;49.85;93653.16;521910;28;793;-71
2024/04/07 00:36:30;;;;;;;2.58;0.80;;;;;;;17.25;49.78;93649.78;519937;28;2001;-71
2024/04/07 00:36:45;;;;;;;1.90;0.83;;;;;;;17.25;49.83;93647.00;520033;28;758;-71
2024/04/07 00:37:01;;;;;;;1.38;1.00;;;;;;;17.26;49.64;93644.94;521649;28;957;-71
2024/04/07 00:37:16;;;;;;;1.30;1.07;;;;;;;17.24;49.68;93642.72;521988;28;844;-71
2024/04/07 00:37:32;;;;;;;1.48;1.02;;;;;;;17.27;49.67;93651.97;522069;28;879;-71
2024/04/07 00:37:47;;;;;;;1.47;1.00;;;;;;;17.25;49.79;93647.00;522140;28;789;-70
2024/04/07 00:38:03;;;;;;;1.05;0.80;;;;;;;17.25;50.35;93644.22;521948;28;1029;-70
2024/04/07 00:38:19;;;;;;;1.50;0.80;;;;;;;17.25;50.38;93641.41;522003;28;809;-70
2024/04/07 00:38:34;;;;;;;1.65;0.93;;;;;;;17.25;50.59;93646.25;520580;28;1705;-70
2024/04/07 00:38:50;;;;;;;1.88;0.88;;;;;;;17.22;50.20;93642.59;521621;28;756;-70
2024/04/07 00:39:08;;;;;;;2.77;0.93;;;;;;;17.19;49.95;93643.03;520394;28;866;-70
2024/04/07 00:39:23;;;;;;;2.00;0.95;;;;;;;17.20;49.61;93641.69;521646;28;858;-70
2024/04/07 00:39:38;;;;;;;0.80;0.80;;;;;;;17.19;49.59;93651.41;522142;28;940;-70
2024/04/07 00:39:57;;;;;;;1.02;0.88;;;;;;;17.17;49.51;93645.69;521999;28;867;-70
2024/04/07 00:40:12;;;;;;;1.40;0.90;;;;;;;17.17;50.31;93648.47;521789;28;1005;-70
2024/04/07 00:40:28;;;;;;;1.70;0.73;;;;;;;17.16;50.25;93644.19;521971;28;1140;-70
2024/04/07 00:40:43;;;;;;;1.77;0.82;;;;;;;17.17;50.25;93648.47;521986;28;883;-70
2024/04/07 00:41:00;;;;;;;1.57;1.00;;;;;;;17.18;50.03;93647.13;522101;28;789;-70
2024/04/07 00:41:15;;;;;;;1.42;1.10;;;;;;;17.18;49.98;93647.88;521076;28;1745;-70
2024/04/07 00:41:31;;;;;;;1.73;1.03;;;;;;;17.20;50.56;93648.03;521879;28;1241;-69
2024/04/07 00:41:46;;;;;;;1.48;0.82;;;;;;;17.21;50.51;93646.72;520306;28;962;-70
2024/04/07 00:42:02;;;;;;;1.90;0.90;;;;;;;17.22;50.49;93644.63;522037;28;780;-70
2024/04/07 00:42:18;;;;;;;2.00;0.90;;;;;;;17.22;50.50;93644.63;522017;28;780;-70
2024/04/07 00:42:34;;;;;;;1.98;1.05;;;;;;;17.23;50.63;93640.53;522018;28;839;-70
2024/04/07 00:42:49;;;;;;;2.60;1.10;;;;;;;17.22;50.59;93645.38;522107;28;796;-70
2024/04/07 00:43:05;;;;;;;3.17;1.20;;;;;;;17.23;50.62;93646.13;521892;28;882;-70
2024/04/07 00:43:22;;;;;;;2.65;1.17;;;;;;;17.24;50.43;93647.56;521905;28;1003;-69
2024/04/07 00:43:40;;;;;;;1.85;1.00;;;;;;;17.23;50.44;93646.13;522079;28;942;-70
2024/04/07 00:43:55;;;;;;;1.05;0.95;;;;;;;17.22;50.29;93639.06;522042;28;859;-70
2024/04/07 00:44:11;;;;;;;1.30;1.10;;;;;;;17.21;50.36;93641.13;522011;28;871;-70
2024/04/07 00:44:26;;;;;;;1.80;1.03;;;;;;;17.23;51.00;93643.31;521968;28;803;-70
2024/04/07 00:44:41;;;;;;;1.40;0.90;;;;;;;17.24;50.93;93642.00;521932;28;1092;-70
2024/04/07 00:44:57;;;;;;;1.07;0.97;;;;;;;17.24;50.88;93642.00;522117;28;800;-69
2024/04/07 00:45:12;;;;;;;1.20;1.10;;;;;;;17.24;50.92;93633.63;521799;28;1123;-69
2024/04/07 00:45:28;;;;;;;1.50;1.10;;;;;;;17.24;50.89;93642.00;522121;28;833;-70
2024/04/07 00:45:43;;;;;;;1.43;0.90;;;;;;;17.21;50.61;93635.53;521761;28;1748;-70
2024/04/07 00:45:59;;;;;;;1.23;0.85;;;;;;;17.19;50.48;93635.41;521773;28;838;-70
2024/04/07 00:46:16;;;;;;;1.50;1.00;;;;;;;17.16;50.49;93639.34;520437;28;953;-70
2024/04/07 00:46:31;;;;;;;1.42;0.90;;;;;;;17.17;50.62;93640.81;521910;28;828;-70
2024/04/07 00:46:47;;;;;;;1.13;0.90;;;;;;;17.16;50.61;93642.16;521770;28;1094;-70
2024/04/07 00:47:03;;;;;;;1.58;1.10;;;;;;;17.17;50.57;93640.81;521885;28;848;-70
2024/04/07 00:47:19;;;;;;;1.65;1.10;;;;;;;17.17;50.49;93648.47;521710;28;860;-70
2024/04/07 00:47:34;;;;;;;1.55;1.00;;;;;;;17.16;50.70;93644.94;521951;28;824;-70
2024/04/07 00:47:50;;;;;;;2.00;1.00;;;;;;;17.17;51.00;93651.25;521883;28;965;-70
2024/04/07 00:48:06;;;;;;;1.75;1.05;;;;;;;17.17;51.03;93642.88;521660;28;1165;-70
2024/04/07 00:48:22;;;;;;;2.05;0.98;;;;;;;17.17;51.53;93640.09;521410;28;910;-70
2024/04/07 00:48:37;;;;;;;2.58;1.00;;;;;;;17.14;52.30;93641.25;521905;28;844;-71
2024/04/07 00:48:53;;;;;;;2.20;1.10;;;;;;;17.11;51.83;93645.97;521889;28;788;-70
2024/04/07 00:49:08;;;;;;;1.80;1.10;;;;;;;17.10;51.87;93641.72;519845;28;827;-70
2024/04/07 00:49:24;;;;;;;1.60;1.10;;;;;;;17.10;51.88;93640.97;520270;28;819;-70
2024/04/07 00:49:41;;;;;;;1.30;1.10;;;;;;;17.10;51.75;93641.72;519908;28;867;-70
2024/04/07 00:49:57;;;;;;;1.05;0.90;;;;;;;17.10;52.03;93644.50;518865;28;1045;-69
2024/04/07 00:50:13;;;;;;;1.48;0.90;;;;;;;17.10;52.03;93647.28;515748;28;840;-70
2024/04/07 00:50:29;;;;;;;2.22;1.00;;;;;;;17.10;51.75;93644.50;517651;28;907;-70
2024/04/07 00:50:49;;;;;;;1.67;1.00;;;;;;;17.10;51.62;93643.75;517788;28;772;-70
2024/04/07 00:51:04;;;;;;;1.50;0.93;;;;;;;17.09;51.48;93645.81;517050;28;898;-70
2024/04/07 00:51:20;;;;;;;1.33;0.82;;;;;;;17.09;51.52;93647.88;518796;28;868;-70
2024/04/07 00:51:36;;;;;;;2.50;0.95;;;;;;;17.09;51.64;93645.81;520744;28;1047;-70
2024/04/07 00:51:52;;;;;;;2.40;1.00;;;;;;;17.10;51.67;93640.97;521848;28;811;-70
2024/04/07 00:52:08;;;;;;;2.50;1.08;;;;;;;17.10;51.68;93640.97;521785;28;1576;-70
2024/04/07 00:52:24;;;;;;;2.88;1.20;;;;;;;17.11;51.79;93648.00;521511;28;896;-70
2024/04/07 00:52:40;;;;;;;2.00;1.17;;;;;;;17.11;51.66;93643.16;521965;28;826;-70
2024/04/07 00:52:56;;;;;;;1.73;1.10;;;;;;;17.12;52.01;93647.44;521501;28;1762;-70
2024/04/07 00:53:13;;;;;;;2.20;1.20;;;;;;;17.13;52.26;93642.59;519483;28;1069;-70
2024/04/07 00:53:29;;;;;;;2.33;1.13;;;;;;;17.01;52.63;93630.53;520692;28;861;-70
2024/04/07 00:53:44;;;;;;;2.10;1.10;;;;;;;17.13;53.28;93648.19;521848;28;879;-70
2024/04/07 00:54:00;;;;;;;1.80;1.10;;;;;;;17.11;53.65;93650.78;519819;28;836;-70
2024/04/07 00:54:16;;;;;;;1.98;1.20;;;;;;;17.11;53.81;93648.75;518026;28;867;-70
2024/04/07 00:54:31;;;;;;;2.57;1.27;;;;;;;17.11;53.82;93643.16;517692;28;839;-70
2024/04/07 00:54:47;;;;;;;1.95;1.10;;;;;;;17.11;54.40;93645.22;517571;28;1033;-70
2024/04/07 00:55:03;;;;;;;1.77;1.00;;;;;;;17.10;54.36;93644.50;518391;28;864;-70
2024/04/07 00:55:19;;;;;;;1.17;0.90;;;;;;;17.11;54.28;93645.97;520122;28;932;-70
2024/04/07 00:55:35;;;;;;;1.23;1.13;;;;;;;17.12;54.13;93646.69;519362;28;1859;-70
2024/04/07 00:55:50;;;;;;;2.00;1.30;;;;;;;17.11;53.83;93648.75;518078;28;870;-73
2024/04/07 00:56:06;;;;;;;2.13;1.20;;;;;;;17.08;54.50;93647.16;520334;28;764;-74
2024/04/07 00:56:22;;;;;;;1.90;1.13;;;;;;;17.04;54.76;93648.91;521544;28;970;-74
2024/04/07 00:56:38;;;;;;;2.00;1.17;;;;;;;17.03;54.46;93650.22;521795;28;1977;-74
2024/04/07 00:56:54;;;;;;;1.63;1.00;;;;;;;17.00;54.45;93649.31;521838;28;891;-72
2024/04/07 00:57:10;;;;;;;1.63;1.00;;;;;;;16.95;54.17;93646.84;521804;28;784;-72
2024/04/07 00:57:27;;;;;;;1.98;1.00;;;;;;;16.95;55.00;93658.00;521749;28;927;-72
2024/04/07 00:57:43;;;;;;;4.00;1.20;;;;;;;16.93;54.67;93647.44;520365;28;900;-75
2024/04/07 00:57:58;;;;;;;3.60;1.30;;;;;;;16.86;54.60;93647.56;517909;28;1038;-74
2024/04/07 00:58:16;;;;;;;2.20;1.10;;;;;;;16.86;54.39;93658.72;519402;28;1603;-72
2024/04/07 00:58:32;;;;;;;2.10;1.00;;;;;;;16.84;54.13;93658.56;519639;28;1247;-72
2024/04/07 00:58:48;;;;;;;1.30;0.90;;;;;;;16.84;54.07;93662.09;519775;28;888;-72
2024/04/07 00:59:06;;;;;;;0.95;0.90;;;;;;;16.81;54.44;93657.69;519786;28;916;-72
2024/04/07 00:59:22;;;;;;;1.30;1.10;;;;;;;16.82;54.28;93653.59;519238;28;921;-72
2024/04/07 00:59:38;;;;;;;1.55;1.17;;;;;;;16.84;54.40;93650.94;521168;28;1004;-73
2024/04/07 00:59:53;;;;;;;1.90;1.20;;;;;;;16.79;54.34;93645.63;521907;28;804;-72
2024/04/07 01:00:09;;;;;;;1.53;1.03;;;;;;;16.83;54.23;93649.47;521990;28;823;-72
2024/04/07 01:00:27;;;;;;;1.40;1.00;;;;;;;16.83;54.53;93654.31;522113;28;749;-72
2024/04/07 01:00:43;;;;;;;1.70;1.35;;;;;;;16.77;54.70;93648.28;521983;28;800;-71
2024/04/07 01:00:59;;;;;;;1.98;1.50;;;;;;;16.83;54.73;93651.53;522093;28;852;-70
2024/04/07 01:01:14;;;;;;;1.50;1.10;;;;;;;16.83;54.81;93655.03;521583;28;1064;-70
2024/04/07 01:01:30;;;;;;;1.20;1.00;;;;;;;16.84;54.89;93655.78;519957;28;879;-70
2024/04/07 01:01:45;;;;;;;1.83;1.10;;;;;;;16.82;54.92;93658.41;521072;28;1128;-70
2024/04/07 01:02:01;;;;;;;1.75;0.95;;;;;;;16.78;55.43;93652.53;521817;28;784;-70
2024/04/07 01:02:17;;;;;;;1.07;0.97;;;;;;;16.77;54.63;93651.06;521327;28;1710;-72
2024/04/07 01:02:32;;;;;;;2.80;1.15;;;;;;;16.75;54.46;93651.66;521386;28;807;-71
2024/04/07 01:02:48;;;;;;;3.33;1.35;;;;;;;16.77;54.22;93651.81;521855;28;898;-71
2024/04/07 01:03:04;;;;;;;1.70;1.33;;;;;;;16.76;54.19;93655.19;521703;28;934;-71
2024/04/07 01:03:19;;;;;;;1.55;1.13;;;;;;;16.74;54.21;93652.25;521652;28;761;-71
2024/04/07 01:03:35;;;;;;;1.65;1.10;;;;;;;16.68;54.83;93646.94;522071;28;880;-71
2024/04/07 01:03:50;;;;;;;2.00;1.10;;;;;;;16.65;54.39;93648.84;521990;28;848;-71
2024/04/07 01:04:06;;;;;;;1.97;1.13;;;;;;;16.64;54.66;93652.97;522059;28;1058;-71
2024/04/07 01:04:21;;;;;;;2.00;1.27;;;;;;;16.64;54.14;93650.16;521897;28;935;-71
2024/04/07 01:04:37;;;;;;;2.25;1.30;;;;;;;16.38;54.21;93609.16;521855;28;1064;-71
2024/04/07 01:04:52;;;;;;;1.87;1.10;;;;;;;16.66;54.06;93658.69;521997;28;819;-71
2024/04/07 01:05:08;;;;;;;2.65;1.15;;;;;;;16.68;54.05;93649.72;521034;28;1773;-71
2024/04/07 01:05:23;;;;;;;2.33;1.10;;;;;;;16.68;54.11;93650.47;521907;28;772;-71
2024/04/07 01:05:46;;;;;;;1.93;1.20;;;;;;;16.72;54.24;93660.47;522018;28;899;-71
2024/04/07 01:06:02;;;;;;;1.80;1.15;;;;;;;16.72;54.33;93650.03;521214;28;895;-71
2024/04/07 01:06:18;;;;;;;2.30;1.30;;;;;;;16.74;54.49;93655.75;521560;28;1084;-71
2024/04/07 01:06:34;;;;;;;2.45;1.30;;;;;;;16.76;54.63;93649.59;521983;28;886;-71
2024/04/07 01:06:49;;;;;;;2.40;1.23;;;;;;;16.66;54.81;93633.59;521993;28;827;-71
2024/04/07 01:07:05;;;;;;;2.17;1.37;;;;;;;16.77;54.78;93651.06;521945;28;895;-71
2024/04/07 01:07:21;;;;;;;2.17;1.40;;;;;;;16.75;54.98;93650.91;521898;28;784;-70
2024/04/07 01:07:37;;;;;;;2.30;1.20;;;;;;;16.74;54.76;93646.66;522103;28;899;-73
2024/04/07 01:07:55;;;;;;;2.10;1.00;;;;;;;16.73;54.87;93650.75;522163;28;1077;-73
2024/04/07 01:08:12;;;;;;;2.10;1.17;;;;;;;16.71;55.05;93648.56;520532;28;871;-73
2024/04/07 01:08:27;;;;;;;1.35;1.08;;;;;;;16.71;55.00;93651.34;523160;28;871;-73
2024/04/07 01:08:43;;;;;;;1.30;1.10;;;;;;;16.68;54.90;93647.69;521881;28;812;-73
2024/04/07 01:08:59;;;;;;;1.50;1.20;;;;;;;16.70;55.11;93652.66;519816;28;911;-73
2024/04/07 01:09:16;;;;;;;1.80;1.20;;;;;;;16.70;54.76;93635.94;519658;28;1189;-73
2024/04/07 01:09:31;;;;;;;2.70;1.15;;;;;;;16.72;54.99;93649.31;520095;28;1175;-73
2024/04/07 01:09:47;;;;;;;2.28;1.05;;;;;;;16.72;55.04;93644.44;521038;28;808;-73
2024/04/07 01:10:04;;;;;;;1.50;1.20;;;;;;;16.73;55.04;93645.94;519739;28;848;-73
2024/04/07 01:10:19;;;;;;;1.73;1.25;;;;;;;16.75;55.19;93645.34;517708;28;797;-73
2024/04/07 01:10:35;;;;;;;1.80;1.25;;;;;;;16.75;55.11;93648.88;517781;28;828;-73
2024/04/07 01:10:51;;;;;;;1.33;1.23;;;;;;;16.76;55.02;93641.25;518075;28;1728;-73
2024/04/07 01:11:07;;;;;;;1.30;1.20;;;;;;;16.76;54.98;93649.59;518982;28;1114;-73
2024/04/07 01:11:29;;;;;;;1.40;1.30;;;;;;;16.64;55.17;93627.88;519615;28;907;-73
2024/04/07 01:11:44;;;;;;;1.35;1.20;;;;;;;16.79;55.08;93651.94;519744;28;855;-73
2024/04/07 01:12:10;;;;;;;1.50;1.30;;;;;;;16.82;55.30;93650.06;521297;28;813;-73
2024/04/07 01:12:25;;;;;;;1.40;1.30;;;;;;;16.83;55.26;93640.38;522127;28;826;-74
2024/04/07 01:12:51;;;;;;;2.40;1.23;;;;;;;16.84;55.16;93644.63;521912;28;1013;-73
2024/04/07 01:13:07;;;;;;;3.03;1.25;;;;;;;16.72;55.39;93629.78;519854;28;959;-73
2024/04/07 01:13:27;;;;;;;2.03;1.10;;;;;;;16.83;55.39;93643.88;521410;28;884;-73
2024/04/07 01:13:42;;;;;;;1.23;1.13;;;;;;;16.84;55.27;93650.19;521876;28;856;-73
2024/04/07 01:13:58;;;;;;;1.70;1.30;;;;;;;16.83;55.24;93643.88;522044;28;793;-72
2024/04/07 01:14:13;;;;;;;2.22;1.35;;;;;;;16.78;55.17;93638.59;521797;28;998;-73
2024/04/07 01:14:28;;;;;;;2.43;1.30;;;;;;;16.84;55.05;93644.63;521992;28;761;-73
2024/04/07 01:14:44;;;;;;;2.20;1.25;;;;;;;16.84;55.12;93645.38;521175;28;1760;-73
2024/04/07 01:15:00;;;;;;;1.53;1.20;;;;;;;16.84;55.08;93639.78;520937;28;840;-73
2024/04/07 01:15:15;;;;;;;2.10;1.20;;;;;;;16.84;55.52;93642.56;521813;28;856;-72
2024/04/07 01:15:31;;;;;;;3.40;1.20;;;;;;;16.84;55.24;93644.63;522065;28;906;-73
2024/04/07 01:15:46;;;;;;;2.47;1.25;;;;;;;16.85;54.90;93648.91;521904;28;1001;-73
2024/04/07 01:16:02;;;;;;;1.33;1.20;;;;;;;16.83;55.06;93643.88;521340;28;1473;-72
2024/04/07 01:16:17;;;;;;;1.83;1.17;;;;;;;16.77;55.68;93645.47;520728;28;764;-73
2024/04/07 01:16:32;;;;;;;1.92;1.25;;;;;;;16.76;55.95;93638.47;519801;28;1923;-72
2024/04/07 01:16:48;;;;;;;1.43;1.27;;;;;;;16.76;55.73;93644.03;520525;28;773;-72
2024/04/07 01:17:06;;;;;;;1.17;1.08;;;;;;;16.76;55.77;93649.59;521959;28;787;-72
2024/04/07 01:17:21;;;;;;;1.27;1.17;;;;;;;16.76;55.37;93644.03;521871;28;862;-73
2024/04/07 01:17:37;;;;;;;2.50;1.20;;;;;;;16.75;55.12;93642.53;520505;28;1020;-72
2024/04/07 01:17:52;;;;;;;3.08;1.08;;;;;;;16.72;55.13;93636.09;521932;28;796;-72
2024/04/07 01:18:08;;;;;;;1.93;1.03;;;;;;;16.76;55.00;93649.59;521089;28;1765;-72